Terminal Aerodrome Forecast
Issued by NWS Cleveland, OH

Home | Current Version | Previous Version | Graphics & Text | Print | Product List | Glossary On
Versions: 1 2 3 4 5 6 7 8 9 10 11 12 13 14 15 16 17
369
FTUS41 KCLE 160309 AAA
TAFMFD
TAF AMD
KMFD 160309Z 1603/1624 21007KT P6SM BKN025
      TEMPO 1603/1607 OVC040
     FM160800 23008KT P6SM OVC015
      TEMPO 1611/1615 SCT015
     FM161800 23007KT P6SM BKN025=

USA.gov is the U.S. government's official web portal to all federal, state and local government web resources and services.